createdAt,value
2022-11-14T00:01:10.240Z,7.80
2022-11-14T00:03:37.200Z,7.80
2022-11-14T00:06:07.923Z,7.90
2022-11-14T00:08:35.823Z,7.90
2022-11-14T00:11:02.866Z,8.00
2022-11-14T00:13:29.824Z,8.00
2022-11-14T00:15:56.865Z,8.00
2022-11-14T00:18:24.201Z,8.10
2022-11-14T00:20:52.828Z,8.10
2022-11-14T00:23:21.155Z,8.10
2022-11-14T00:25:48.071Z,8.10
2022-11-14T00:28:15.750Z,8.00
2022-11-14T00:30:46.136Z,8.00
2022-11-14T00:33:19.759Z,8.00
2022-11-14T00:35:54.727Z,8.00
2022-11-14T00:38:22.053Z,7.90
2022-11-14T00:40:48.991Z,7.90
2022-11-14T00:43:15.829Z,7.90
2022-11-14T00:45:46.931Z,7.90
2022-11-14T00:48:14.477Z,8.00
2022-11-14T00:50:42.082Z,7.90
2022-11-14T00:53:09.028Z,7.90
2022-11-14T00:55:35.828Z,8.00
2022-11-14T00:58:02.713Z,8.00
2022-11-14T01:00:29.582Z,8.00
2022-11-14T01:02:58.300Z,8.00
2022-11-14T01:05:25.961Z,7.90
2022-11-14T01:07:53.063Z,7.90
2022-11-14T01:10:21.011Z,7.90
2022-11-14T01:12:47.878Z,7.90
2022-11-14T01:15:14.715Z,7.90
2022-11-14T01:17:41.811Z,8.00
2022-11-14T01:20:09.008Z,7.90
2022-11-14T01:22:35.826Z,7.90
2022-11-14T01:25:02.731Z,7.90
2022-11-14T01:27:32.525Z,7.90
2022-11-14T01:29:59.430Z,7.90
2022-11-14T01:32:27.058Z,7.90
2022-11-14T01:34:53.865Z,7.90
2022-11-14T01:37:20.792Z,8.00
2022-11-14T01:39:47.636Z,7.90
2022-11-14T01:42:14.462Z,7.70
2022-11-14T01:44:46.664Z,7.60
2022-11-14T01:47:19.439Z,7.70
2022-11-14T01:49:49.756Z,7.80
2022-11-14T01:52:30.936Z,7.90
2022-11-14T01:55:04.875Z,7.90
2022-11-14T01:57:40.497Z,7.90
2022-11-14T02:00:10.481Z,7.90
2022-11-14T02:02:38.500Z,7.90
2022-11-14T02:05:12.998Z,7.80
2022-11-14T02:07:41.256Z,7.70
2022-11-14T02:10:18.311Z,7.70
2022-11-14T02:12:46.283Z,7.60
2022-11-14T02:15:14.564Z,7.60
2022-11-14T02:17:42.987Z,7.50
2022-11-14T02:20:12.975Z,7.60
2022-11-14T02:22:41.391Z,7.60
2022-11-14T02:25:10.093Z,7.60
2022-11-14T02:27:38.645Z,7.60
2022-11-14T02:30:11.774Z,7.60
2022-11-14T02:35:25.871Z,7.70
2022-11-14T02:37:52.708Z,7.70
2022-11-14T02:40:19.651Z,7.60
2022-11-14T02:47:04.573Z,7.70
2022-11-14T02:49:32.031Z,7.70
2022-11-14T02:51:59.939Z,7.70
2022-11-14T02:54:26.780Z,7.70
2022-11-14T02:56:53.569Z,7.70
2022-11-14T02:59:20.377Z,7.60
2022-11-14T03:01:47.289Z,7.50
2022-11-14T03:04:14.153Z,7.50
2022-11-14T03:06:41.024Z,7.40
2022-11-14T03:09:09.064Z,7.40
2022-11-14T03:11:35.905Z,7.30
2022-11-14T03:14:02.702Z,7.30
2022-11-14T03:16:29.494Z,7.30
2022-11-14T03:18:56.499Z,7.40
2022-11-14T03:21:23.937Z,7.40
2022-11-14T03:23:50.842Z,7.50
2022-11-14T03:26:17.640Z,7.50
2022-11-14T03:28:44.581Z,7.50
2022-11-14T03:31:13.195Z,7.50
2022-11-14T03:33:40.394Z,7.50
2022-11-14T03:36:08.314Z,7.60
2022-11-14T03:38:35.358Z,7.50
2022-11-14T03:41:02.576Z,7.50
2022-11-14T03:43:33.933Z,7.50
2022-11-14T03:46:02.272Z,7.40
2022-11-14T03:48:30.761Z,7.30
2022-11-14T03:50:58.246Z,7.30
2022-11-14T03:53:25.478Z,7.30
2022-11-14T03:55:52.696Z,7.30
2022-11-14T03:58:19.489Z,7.30
2022-11-14T04:00:46.390Z,7.40
2022-11-14T04:03:13.244Z,7.40
2022-11-14T04:05:40.558Z,7.30
2022-11-14T04:08:07.702Z,7.30
2022-11-14T04:10:34.536Z,7.30
2022-11-14T04:13:01.349Z,7.20
2022-11-14T04:15:28.117Z,7.20
2022-11-14T04:17:54.918Z,7.20
2022-11-14T04:20:21.824Z,7.20
2022-11-14T04:22:48.620Z,7.20
2022-11-14T04:25:15.475Z,7.10
2022-11-14T04:27:43.086Z,7.10
2022-11-14T04:30:10.726Z,7.10
2022-11-14T04:32:37.617Z,7.00
2022-11-14T04:35:04.695Z,7.00
2022-11-14T04:37:31.499Z,6.90
2022-11-14T04:40:00.953Z,7.00
2022-11-14T04:42:27.836Z,7.00
2022-11-14T04:44:54.748Z,7.10
2022-11-14T04:47:21.748Z,7.00
2022-11-14T04:49:48.560Z,7.00
2022-11-14T04:52:15.418Z,7.00
2022-11-14T04:54:42.246Z,7.00
2022-11-14T04:57:09.049Z,7.00
2022-11-14T04:59:35.889Z,6.90
2022-11-14T05:02:02.721Z,6.90
2022-11-14T05:04:29.586Z,6.90
2022-11-14T05:06:56.437Z,6.90
2022-11-14T05:09:23.256Z,7.00
2022-11-14T05:11:50.084Z,6.90
2022-11-14T05:14:16.924Z,7.00
2022-11-14T05:16:43.716Z,6.90
2022-11-14T05:19:10.528Z,7.00
2022-11-14T05:21:37.343Z,7.00
2022-11-14T05:24:04.483Z,7.00
2022-11-14T05:26:31.321Z,7.00
2022-11-14T05:28:58.193Z,7.00
2022-11-14T05:31:25.010Z,7.00
2022-11-14T05:33:52.568Z,7.00
2022-11-14T05:36:19.651Z,7.00
2022-11-14T05:38:46.437Z,7.00
2022-11-14T05:41:16.034Z,7.00
2022-11-14T05:43:44.315Z,6.90
2022-11-14T05:46:13.048Z,6.90
2022-11-14T05:48:40.770Z,6.90
2022-11-14T05:51:10.426Z,6.90
2022-11-14T05:53:37.421Z,6.90
2022-11-14T05:56:06.372Z,6.90
2022-11-14T05:58:34.517Z,6.80
2022-11-14T06:01:10.333Z,6.90
2022-11-14T06:03:40.369Z,6.90
2022-11-14T06:06:09.589Z,6.80
2022-11-14T06:08:36.927Z,6.80
2022-11-14T06:11:15.503Z,6.70
2022-11-14T06:13:42.780Z,6.60
2022-11-14T06:16:17.550Z,6.60
2022-11-14T06:18:45.776Z,6.70
2022-11-14T06:21:21.375Z,6.50
2022-11-14T06:23:49.248Z,6.40
2022-11-14T06:26:18.841Z,6.30
2022-11-14T06:28:45.650Z,6.30
2022-11-14T06:31:12.495Z,6.20
2022-11-14T06:33:39.300Z,6.30
2022-11-14T06:36:07.606Z,6.40
2022-11-14T06:38:36.587Z,6.40
2022-11-14T06:41:05.851Z,6.50
2022-11-14T06:43:34.202Z,6.50
2022-11-14T06:46:01.734Z,6.60
2022-11-14T06:48:30.555Z,6.60
2022-11-14T06:50:59.059Z,6.70
2022-11-14T06:53:28.132Z,6.70
2022-11-14T06:55:59.457Z,6.80
2022-11-14T06:58:28.267Z,6.80
2022-11-14T07:00:55.876Z,6.80
2022-11-14T07:03:23.291Z,6.90
2022-11-14T07:05:50.150Z,6.90
2022-11-14T07:08:20.793Z,7.20
2022-11-14T07:10:48.070Z,6.90
2022-11-14T07:13:14.995Z,7.00
2022-11-14T07:15:51.111Z,7.10
2022-11-14T07:18:18.098Z,7.10
2022-11-14T07:20:44.942Z,7.20
2022-11-14T07:23:11.798Z,7.20
2022-11-14T07:25:38.805Z,7.20
2022-11-14T07:28:06.031Z,7.30
2022-11-14T07:30:34.202Z,7.30
2022-11-14T07:33:01.072Z,7.40
2022-11-14T07:35:28.014Z,7.50
2022-11-14T07:38:04.118Z,7.50
2022-11-14T07:40:30.974Z,7.50
2022-11-14T07:43:00.030Z,7.50
2022-11-14T07:45:28.247Z,7.60
2022-11-14T07:47:57.311Z,7.60
2022-11-14T07:50:25.819Z,7.60
2022-11-14T07:52:53.692Z,7.80
2022-11-14T07:55:21.353Z,7.80
2022-11-14T07:57:52.147Z,7.90
2022-11-14T08:00:19.309Z,8.00
2022-11-14T08:02:47.013Z,8.10
2022-11-14T08:05:13.922Z,8.10
2022-11-14T08:07:40.755Z,8.10
2022-11-14T08:10:08.432Z,8.10
2022-11-14T08:12:35.331Z,8.20
2022-11-14T08:15:02.108Z,8.20
2022-11-14T08:17:29.000Z,8.30
2022-11-14T08:19:55.801Z,8.20
2022-11-14T08:22:22.692Z,8.30
2022-11-14T08:24:49.570Z,8.50
2022-11-14T08:27:16.390Z,8.60
2022-11-14T08:29:43.211Z,8.70
2022-11-14T08:32:10.671Z,8.90
2022-11-14T08:34:37.631Z,9.20
2022-11-14T08:37:04.572Z,9.40
2022-11-14T08:39:31.362Z,9.50
2022-11-14T08:41:58.200Z,9.70
2022-11-14T08:44:25.048Z,9.80
2022-11-14T08:46:51.978Z,9.80
2022-11-14T08:49:18.947Z,10.00
2022-11-14T08:51:45.848Z,10.30
2022-11-14T08:54:12.712Z,10.90
2022-11-14T08:56:39.600Z,11.40
2022-11-14T08:59:06.449Z,11.80
2022-11-14T09:01:33.319Z,12.20
2022-11-14T09:04:00.777Z,12.50
2022-11-14T09:06:27.698Z,12.80
2022-11-14T09:08:54.731Z,13.00
2022-11-14T09:11:21.554Z,13.20
2022-11-14T09:13:48.367Z,13.40
2022-11-14T09:16:15.211Z,13.60
2022-11-14T09:18:42.139Z,13.70
2022-11-14T09:21:10.276Z,13.80
2022-11-14T09:23:37.138Z,13.90
2022-11-14T09:26:06.042Z,14.20
2022-11-14T09:28:33.216Z,14.30
2022-11-14T09:31:04.826Z,14.40
2022-11-14T09:33:31.892Z,14.50
2022-11-14T09:36:07.453Z,14.40
2022-11-14T09:38:38.381Z,14.10
2022-11-14T09:41:08.777Z,14.00
2022-11-14T09:43:41.502Z,14.10
2022-11-14T09:46:34.297Z,14.30
2022-11-14T09:49:01.199Z,14.40
2022-11-14T09:51:36.958Z,14.50
2022-11-14T09:54:28.649Z,14.70
2022-11-14T09:56:55.570Z,14.70
2022-11-14T09:59:22.494Z,14.70
2022-11-14T10:02:03.208Z,14.90
2022-11-14T10:04:41.704Z,14.80
2022-11-14T10:07:19.851Z,14.80
2022-11-14T10:10:05.686Z,14.90
2022-11-14T10:13:07.135Z,14.90
2022-11-14T10:15:48.133Z,15.00
2022-11-14T10:18:39.763Z,14.80
2022-11-14T10:21:25.486Z,14.70
2022-11-14T10:24:04.709Z,14.50
2022-11-14T10:26:36.516Z,14.30
2022-11-14T10:29:25.923Z,14.10
2022-11-14T10:31:52.713Z,14.00
2022-11-14T10:34:32.544Z,13.90
2022-11-14T10:37:21.143Z,13.70
2022-11-14T10:39:53.247Z,13.70
2022-11-14T10:42:41.526Z,13.70
2022-11-14T10:45:33.183Z,13.70
2022-11-14T10:48:13.284Z,13.60
2022-11-14T10:50:55.044Z,13.50
2022-11-14T10:54:00.511Z,13.50
2022-11-14T10:56:27.340Z,13.40
2022-11-14T10:58:54.198Z,13.40
2022-11-14T11:01:44.630Z,13.50
2022-11-14T11:04:18.667Z,13.40
2022-11-14T11:06:45.587Z,13.40
2022-11-14T11:09:53.260Z,13.40
2022-11-14T11:12:23.790Z,13.50
2022-11-14T11:15:22.845Z,13.50
2022-11-14T11:18:01.460Z,13.50
2022-11-14T11:20:32.960Z,13.50
2022-11-14T11:23:04.941Z,13.50
2022-11-14T11:25:33.719Z,13.40
2022-11-14T11:28:12.375Z,13.30
2022-11-14T11:30:39.998Z,13.30
2022-11-14T11:33:22.540Z,13.20
2022-11-14T11:35:51.186Z,13.20
2022-11-14T11:38:19.926Z,13.10
2022-11-14T11:40:51.149Z,13.20
2022-11-14T11:44:02.631Z,13.20
2022-11-14T11:46:32.712Z,13.20
2022-11-14T11:49:32.145Z,13.20
2022-11-14T11:52:05.823Z,13.20
2022-11-14T11:54:53.947Z,13.20
2022-11-14T11:57:28.677Z,13.10
2022-11-14T12:00:22.446Z,13.20
2022-11-14T12:02:52.380Z,13.20
2022-11-14T12:05:32.116Z,13.20
2022-11-14T12:08:04.520Z,13.30
2022-11-14T12:10:40.625Z,13.30
2022-11-14T12:13:26.738Z,13.40
2022-11-14T12:16:13.329Z,13.30
2022-11-14T12:19:12.629Z,13.30
2022-11-14T12:21:48.485Z,13.20
2022-11-14T12:24:26.509Z,13.20
2022-11-14T12:27:12.530Z,13.20
2022-11-14T12:30:16.045Z,13.20
2022-11-14T12:33:03.381Z,13.10
2022-11-14T12:35:35.642Z,13.10
2022-11-14T12:38:15.578Z,13.10
2022-11-14T12:40:51.771Z,13.00
2022-11-14T12:43:35.779Z,13.10
2022-11-14T12:46:08.688Z,13.00
2022-11-14T12:48:40.805Z,13.00
2022-11-14T12:51:25.765Z,13.00
2022-11-14T12:53:54.535Z,13.00
2022-11-14T12:56:33.058Z,13.00
2022-11-14T12:59:15.257Z,12.90
2022-11-14T13:01:51.009Z,12.90
2022-11-14T13:04:36.948Z,12.90
2022-11-14T13:07:31.352Z,12.90
2022-11-14T13:10:29.327Z,12.90
2022-11-14T13:13:35.133Z,12.80
2022-11-14T13:16:36.326Z,12.90
2022-11-14T13:19:42.004Z,12.90
2022-11-14T13:22:11.898Z,12.90
2022-11-14T13:24:59.739Z,12.90
2022-11-14T13:28:05.445Z,12.90
2022-11-14T13:31:07.005Z,12.80
2022-11-14T13:33:45.342Z,12.80
2022-11-14T13:36:22.023Z,12.90
2022-11-14T13:39:10.056Z,12.90
2022-11-14T13:42:05.357Z,12.90
2022-11-14T13:44:41.219Z,12.90
2022-11-14T13:47:25.471Z,12.90
2022-11-14T13:50:15.092Z,12.80
2022-11-14T13:52:48.843Z,12.80
2022-11-14T13:55:28.087Z,12.70
2022-11-14T13:58:19.092Z,12.70
2022-11-14T14:01:13.335Z,12.70
2022-11-14T14:04:05.157Z,12.60
2022-11-14T14:06:34.834Z,12.60
2022-11-14T14:09:42.784Z,12.60
2022-11-14T14:12:24.760Z,12.50
2022-11-14T14:14:57.433Z,12.50
2022-11-14T14:17:31.847Z,12.40
2022-11-14T14:20:17.265Z,12.40
2022-11-14T14:22:44.029Z,12.30
2022-11-14T14:25:30.298Z,12.30
2022-11-14T14:28:19.221Z,12.20
2022-11-14T14:31:08.059Z,12.10
2022-11-14T14:33:47.419Z,12.00
2022-11-14T14:36:25.384Z,11.90
2022-11-14T14:39:15.365Z,11.90
2022-11-14T14:41:42.335Z,11.80
2022-11-14T14:44:36.548Z,11.70
2022-11-14T14:47:38.605Z,11.70
2022-11-14T14:50:16.120Z,11.60
2022-11-14T14:52:43.274Z,11.60
2022-11-14T14:55:27.100Z,11.50
2022-11-14T14:57:53.904Z,11.50
2022-11-14T15:00:26.339Z,11.40
2022-11-14T15:02:57.036Z,11.30
2022-11-14T15:05:29.488Z,11.30
2022-11-14T15:07:59.124Z,11.20
2022-11-14T15:10:32.385Z,11.10
2022-11-14T15:12:59.906Z,11.00
2022-11-14T15:15:27.857Z,10.90
2022-11-14T15:17:58.761Z,10.90
2022-11-14T15:20:28.613Z,10.80
2022-11-14T15:23:10.186Z,10.70
2022-11-14T15:25:37.681Z,10.70
2022-11-14T15:28:05.385Z,10.60
2022-11-14T15:30:37.727Z,10.60
2022-11-14T15:33:07.102Z,10.50
2022-11-14T15:35:39.152Z,10.40
2022-11-14T15:41:19.915Z,10.20
2022-11-14T15:43:49.435Z,10.20
2022-11-14T15:46:34.537Z,10.10
2022-11-14T15:49:25.349Z,10.00
2022-11-14T15:51:55.004Z,9.90
2022-11-14T15:54:27.021Z,9.90
2022-11-14T15:56:56.028Z,9.80
2022-11-14T15:59:23.770Z,9.80
2022-11-14T16:02:04.455Z,9.80
2022-11-14T16:04:34.893Z,9.70
2022-11-14T16:07:01.816Z,9.60
2022-11-14T16:09:28.667Z,9.50
2022-11-14T16:11:55.552Z,9.40
2022-11-14T16:14:22.393Z,9.40
2022-11-14T16:16:49.260Z,9.30
2022-11-14T16:19:16.835Z,9.30
2022-11-14T16:21:44.831Z,9.20
2022-11-14T16:24:21.860Z,9.10
2022-11-14T16:26:49.772Z,9.10
2022-11-14T16:29:16.884Z,9.00
2022-11-14T16:31:44.097Z,9.00
2022-11-14T16:34:18.042Z,9.00
2022-11-14T16:36:46.151Z,8.80
2022-11-14T16:39:13.881Z,8.70
2022-11-14T16:41:41.701Z,8.70
2022-11-14T16:44:15.057Z,8.60
2022-11-14T16:46:45.712Z,8.50
2022-11-14T16:49:17.071Z,8.40
2022-11-14T16:51:49.664Z,8.30
2022-11-14T16:54:20.651Z,8.30
2022-11-14T16:56:48.406Z,8.20
2022-11-14T16:59:15.944Z,8.10
2022-11-14T17:01:42.933Z,8.10
2022-11-14T17:04:10.135Z,8.10
2022-11-14T17:06:37.403Z,8.00
2022-11-14T17:09:04.333Z,8.00
2022-11-14T17:11:31.839Z,8.00
2022-11-14T17:13:58.767Z,8.00
2022-11-14T17:16:26.041Z,7.90
2022-11-14T17:18:56.510Z,7.90
2022-11-14T17:21:24.349Z,7.90
2022-11-14T17:24:00.475Z,7.80
2022-11-14T17:26:28.303Z,7.80
2022-11-14T17:28:55.214Z,7.80
2022-11-14T17:31:22.290Z,7.70
2022-11-14T17:33:54.376Z,7.70
2022-11-14T17:36:22.993Z,7.60
2022-11-14T17:38:49.920Z,7.60
2022-11-14T17:41:17.005Z,7.60
2022-11-14T17:43:44.797Z,7.60
2022-11-14T17:46:16.241Z,7.50
2022-11-14T17:48:46.865Z,7.40
2022-11-14T17:51:17.459Z,7.40
2022-11-14T17:53:45.236Z,7.40
2022-11-14T17:56:18.121Z,7.30
2022-11-14T17:58:45.963Z,7.30
2022-11-14T18:01:15.767Z,7.20
2022-11-14T18:03:43.629Z,7.20
2022-11-14T18:06:21.812Z,7.10
2022-11-14T18:08:49.328Z,7.10
2022-11-14T18:11:18.044Z,7.10
2022-11-14T18:13:45.350Z,7.10
2022-11-14T18:16:20.257Z,7.10
2022-11-14T18:18:47.746Z,7.00
2022-11-14T18:21:17.764Z,7.00
2022-11-14T18:23:50.963Z,6.90
2022-11-14T18:26:19.142Z,6.90
2022-11-14T18:28:46.295Z,6.90
2022-11-14T18:31:14.374Z,6.90
2022-11-14T18:33:41.902Z,6.80
2022-11-14T18:36:13.818Z,6.80
2022-11-14T18:38:42.333Z,6.70
2022-11-14T18:41:13.325Z,6.70
2022-11-14T18:43:41.183Z,6.70
2022-11-14T18:46:17.073Z,6.70
2022-11-14T18:48:47.091Z,6.60
2022-11-14T18:51:20.872Z,6.60
2022-11-14T18:53:48.697Z,6.60
2022-11-14T18:56:18.353Z,6.60
2022-11-14T18:58:47.014Z,6.60
2022-11-14T19:01:24.284Z,6.50
2022-11-14T19:03:52.543Z,6.40
2022-11-14T19:06:19.837Z,6.30
2022-11-14T19:08:47.417Z,6.20
2022-11-14T19:11:36.219Z,6.20
2022-11-14T19:14:05.221Z,6.10
2022-11-14T19:16:36.515Z,6.00
2022-11-14T19:19:05.231Z,5.90
2022-11-14T19:21:32.801Z,5.90
2022-11-14T19:23:59.857Z,5.90
2022-11-14T19:26:28.093Z,5.90
2022-11-14T19:28:56.104Z,5.90
2022-11-14T19:31:24.401Z,5.90
2022-11-14T19:33:51.684Z,5.90
2022-11-14T19:36:52.713Z,5.90
2022-11-14T19:39:09.435Z,5.80
2022-11-14T19:41:36.663Z,5.70
2022-11-14T19:44:04.106Z,5.80
2022-11-14T19:46:31.549Z,5.80
2022-11-14T19:49:00.307Z,5.80
2022-11-14T19:51:29.065Z,5.70
2022-11-14T19:53:57.918Z,5.70
2022-11-14T19:56:25.701Z,5.60
2022-11-14T19:58:55.713Z,5.60
2022-11-14T20:01:28.555Z,5.50
2022-11-14T20:03:58.332Z,5.40
2022-11-14T20:06:34.570Z,5.30
2022-11-14T20:09:05.756Z,5.40
2022-11-14T20:11:33.380Z,5.40
2022-11-14T20:14:01.307Z,5.40
2022-11-14T20:16:31.318Z,5.30
2022-11-14T20:19:01.273Z,5.30
2022-11-14T20:21:31.181Z,5.30
2022-11-14T20:23:59.379Z,5.30
2022-11-14T20:26:27.125Z,5.30
2022-11-14T20:28:55.125Z,5.30
2022-11-14T20:31:25.292Z,5.30
2022-11-14T20:33:54.146Z,5.30
2022-11-14T20:36:26.083Z,5.30
2022-11-14T20:38:54.242Z,5.30
2022-11-14T20:41:22.042Z,5.30
2022-11-14T20:43:49.540Z,5.30
2022-11-14T20:46:24.192Z,5.30
2022-11-14T20:48:51.652Z,5.30
2022-11-14T20:51:21.869Z,5.30
2022-11-14T20:53:50.674Z,5.20
2022-11-14T20:56:18.343Z,5.20
2022-11-14T20:58:46.978Z,5.10
2022-11-14T21:01:15.242Z,5.10
2022-11-14T21:03:42.542Z,5.00
2022-11-14T21:06:15.147Z,5.10
2022-11-14T21:08:42.617Z,5.00
2022-11-14T21:11:18.533Z,5.00
2022-11-14T21:13:58.979Z,5.00
2022-11-14T21:16:31.073Z,5.10
2022-11-14T21:18:58.660Z,5.00
2022-11-14T21:21:30.492Z,5.00
2022-11-14T21:23:57.623Z,5.00
2022-11-14T21:26:30.364Z,4.90
2022-11-14T21:29:03.288Z,4.90
2022-11-14T21:31:31.748Z,4.90
2022-11-14T21:34:03.432Z,4.90
2022-11-14T21:36:47.108Z,4.90
2022-11-14T21:39:16.413Z,4.90
2022-11-14T21:41:44.322Z,4.80
2022-11-14T21:44:13.684Z,4.80
2022-11-14T21:46:41.252Z,4.90
2022-11-14T21:49:09.056Z,4.90
2022-11-14T21:51:35.892Z,4.80
2022-11-14T21:54:05.197Z,4.80
2022-11-14T21:56:37.145Z,4.80
2022-11-14T21:59:13.681Z,4.90
2022-11-14T22:02:01.491Z,4.80
2022-11-14T22:04:28.710Z,4.80
2022-11-14T22:06:56.002Z,4.80
2022-11-14T22:09:22.944Z,4.80
2022-11-14T22:11:49.778Z,4.70
2022-11-14T22:14:16.606Z,4.80
2022-11-14T22:16:43.432Z,4.80
2022-11-14T22:19:10.325Z,4.70
2022-11-14T22:21:37.578Z,4.70
2022-11-14T22:24:04.757Z,4.80
2022-11-14T22:26:32.109Z,4.70
2022-11-14T22:28:59.030Z,4.70
2022-11-14T22:31:25.947Z,4.70
2022-11-14T22:33:53.746Z,4.60
2022-11-14T22:36:25.358Z,4.70
2022-11-14T22:38:53.985Z,4.70
2022-11-14T22:41:26.483Z,4.70
2022-11-14T22:43:57.905Z,4.60
2022-11-14T22:46:25.022Z,4.60
2022-11-14T22:48:51.871Z,4.70
2022-11-14T22:51:21.372Z,4.50
2022-11-14T22:53:53.471Z,4.50
2022-11-14T22:56:22.846Z,4.50
2022-11-14T22:58:49.797Z,4.50
2022-11-14T23:01:19.853Z,4.50
2022-11-14T23:03:50.128Z,4.50
2022-11-14T23:06:19.131Z,4.50
2022-11-14T23:08:46.543Z,4.60
2022-11-14T23:11:19.074Z,4.50
2022-11-14T23:13:48.212Z,4.50
2022-11-14T23:16:17.793Z,4.50
2022-11-14T23:18:45.267Z,4.50
2022-11-14T23:21:15.541Z,4.50
2022-11-14T23:23:42.543Z,4.50
2022-11-14T23:26:16.231Z,4.50
2022-11-14T23:28:43.439Z,4.50
2022-11-14T23:31:11.642Z,4.50
2022-11-14T23:33:39.040Z,4.50
2022-11-14T23:36:05.997Z,4.50
2022-11-14T23:38:32.813Z,4.50
2022-11-14T23:41:01.890Z,4.50
2022-11-14T23:43:31.062Z,4.60
2022-11-14T23:45:58.792Z,4.50
2022-11-14T23:48:26.023Z,4.60
2022-11-14T23:50:54.776Z,4.60
2022-11-14T23:53:22.304Z,4.70
2022-11-14T23:55:57.478Z,4.80
2022-11-14T23:58:25.571Z,4.80
